sensor_id;sensor_type;location;lat;lon;timestamp;pressure;altitude;pressure_sealevel;temperature;humidity
74722;BME280;63470;49.826;6.740;2023-12-04T00:01:54;100254.53;;;-0.43;69.41
74722;BME280;63470;49.826;6.740;2023-12-04T00:04:25;100249.64;;;-0.44;69.38
74722;BME280;63470;49.826;6.740;2023-12-04T00:06:58;100244.97;;;-0.46;69.35
74722;BME280;63470;49.826;6.740;2023-12-04T00:09:31;100237.11;;;-0.49;69.36
74722;BME280;63470;49.826;6.740;2023-12-04T00:12:15;100234.16;;;-0.50;69.33
74722;BME280;63470;49.826;6.740;2023-12-04T00:14:32;100235.65;;;-0.55;69.31
74722;BME280;63470;49.826;6.740;2023-12-04T00:17:04;100230.47;;;-0.60;69.33
74722;BME280;63470;49.826;6.740;2023-12-04T00:19:36;100225.53;;;-0.63;69.38
74722;BME280;63470;49.826;6.740;2023-12-04T00:22:07;100223.80;;;-0.64;69.28
74722;BME280;63470;49.826;6.740;2023-12-04T00:24:39;100218.78;;;-0.69;69.25
74722;BME280;63470;49.826;6.740;2023-12-04T00:27:01;100212.47;;;-0.74;69.20
74722;BME280;63470;49.826;6.740;2023-12-04T00:29:35;100215.13;;;-0.80;69.12
74722;BME280;63470;49.826;6.740;2023-12-04T00:32:04;100209.10;;;-0.84;69.15
74722;BME280;63470;49.826;6.740;2023-12-04T00:34:30;100210.53;;;-0.88;69.13
74722;BME280;63470;49.826;6.740;2023-12-04T00:37:01;100215.00;;;-0.93;69.21
74722;BME280;63470;49.826;6.740;2023-12-04T00:39:31;100210.71;;;-0.96;69.27
74722;BME280;63470;49.826;6.740;2023-12-04T00:42:02;100210.27;;;-1.00;69.28
74722;BME280;63470;49.826;6.740;2023-12-04T00:44:32;100205.55;;;-1.06;69.29
74722;BME280;63470;49.826;6.740;2023-12-04T00:47:03;100205.78;;;-1.11;69.25
74722;BME280;63470;49.826;6.740;2023-12-04T00:49:33;100200.58;;;-1.17;69.29
74722;BME280;63470;49.826;6.740;2023-12-04T00:52:09;100200.44;;;-1.22;69.28
74722;BME280;63470;49.826;6.740;2023-12-04T00:54:34;100199.50;;;-1.28;69.24
74722;BME280;63470;49.826;6.740;2023-12-04T00:57:05;100192.20;;;-1.35;69.19
74722;BME280;63470;49.826;6.740;2023-12-04T00:59:35;100187.65;;;-1.41;69.17
74722;BME280;63470;49.826;6.740;2023-12-04T01:02:07;100182.04;;;-1.46;69.22
74722;BME280;63470;49.826;6.740;2023-12-04T01:04:39;100178.27;;;-1.50;69.25
74722;BME280;63470;49.826;6.740;2023-12-04T01:07:07;100174.34;;;-1.52;69.15
74722;BME280;63470;49.826;6.740;2023-12-04T01:09:37;100173.38;;;-1.55;69.09
74722;BME280;63470;49.826;6.740;2023-12-04T01:12:10;100172.67;;;-1.59;69.18
74722;BME280;63470;49.826;6.740;2023-12-04T01:14:41;100167.26;;;-1.64;69.29
74722;BME280;63470;49.826;6.740;2023-12-04T01:17:14;100165.23;;;-1.67;69.34
74722;BME280;63470;49.826;6.740;2023-12-04T01:19:45;100168.16;;;-1.71;69.31
74722;BME280;63470;49.826;6.740;2023-12-04T01:22:10;100167.91;;;-1.78;69.29
74722;BME280;63470;49.826;6.740;2023-12-04T01:24:40;100163.81;;;-1.85;69.33
74722;BME280;63470;49.826;6.740;2023-12-04T01:27:12;100156.04;;;-1.90;69.40
74722;BME280;63470;49.826;6.740;2023-12-04T01:29:41;100152.08;;;-1.91;69.46
74722;BME280;63470;49.826;6.740;2023-12-04T01:32:12;100155.59;;;-1.87;69.31
74722;BME280;63470;49.826;6.740;2023-12-04T01:34:42;100154.90;;;-1.86;69.26
74722;BME280;63470;49.826;6.740;2023-12-04T01:37:13;100149.05;;;-1.82;69.21
74722;BME280;63470;49.826;6.740;2023-12-04T01:39:43;100138.00;;;-1.79;69.22
74722;BME280;63470;49.826;6.740;2023-12-04T01:42:19;100139.42;;;-1.75;69.15
74722;BME280;63470;49.826;6.740;2023-12-04T01:44:49;100137.50;;;-1.74;69.20
74722;BME280;63470;49.826;6.740;2023-12-04T01:47:17;100134.28;;;-1.73;69.23
74722;BME280;63470;49.826;6.740;2023-12-04T01:49:51;100130.75;;;-1.75;69.27
74722;BME280;63470;49.826;6.740;2023-12-04T01:52:16;100120.75;;;-1.76;69.30
74722;BME280;63470;49.826;6.740;2023-12-04T01:54:46;100117.65;;;-1.75;69.30
74722;BME280;63470;49.826;6.740;2023-12-04T01:57:17;100116.67;;;-1.72;69.25
74722;BME280;63470;49.826;6.740;2023-12-04T01:59:47;100112.82;;;-1.74;69.21
74722;BME280;63470;49.826;6.740;2023-12-04T02:02:17;100106.38;;;-1.76;69.20
74722;BME280;63470;49.826;6.740;2023-12-04T02:04:48;100103.42;;;-1.75;69.17
74722;BME280;63470;49.826;6.740;2023-12-04T02:07:19;100103.02;;;-1.74;69.21
74722;BME280;63470;49.826;6.740;2023-12-04T02:09:52;100098.56;;;-1.75;69.26
74722;BME280;63470;49.826;6.740;2023-12-04T02:12:24;100097.49;;;-1.73;69.24
74722;BME280;63470;49.826;6.740;2023-12-04T02:14:53;100097.77;;;-1.72;69.24
74722;BME280;63470;49.826;6.740;2023-12-04T02:17:26;100100.82;;;-1.72;69.23
74722;BME280;63470;49.826;6.740;2023-12-04T02:20:03;100098.55;;;-1.73;69.23
74722;BME280;63470;49.826;6.740;2023-12-04T02:22:27;100093.48;;;-1.74;69.26
74722;BME280;63470;49.826;6.740;2023-12-04T02:24:58;100092.10;;;-1.75;69.26
74722;BME280;63470;49.826;6.740;2023-12-04T02:27:27;100090.90;;;-1.77;69.28
74722;BME280;63470;49.826;6.740;2023-12-04T02:29:59;100091.06;;;-1.77;69.29
74722;BME280;63470;49.826;6.740;2023-12-04T02:32:28;100091.12;;;-1.78;69.31
74722;BME280;63470;49.826;6.740;2023-12-04T02:34:56;100089.37;;;-1.80;69.33
74722;BME280;63470;49.826;6.740;2023-12-04T02:37:26;100087.84;;;-1.79;69.37
74722;BME280;63470;49.826;6.740;2023-12-04T02:39:57;100083.61;;;-1.80;69.32
74722;BME280;63470;49.826;6.740;2023-12-04T02:42:27;100086.33;;;-1.81;69.35
74722;BME280;63470;49.826;6.740;2023-12-04T02:45:02;100076.97;;;-1.83;69.32
74722;BME280;63470;49.826;6.740;2023-12-04T02:47:33;100070.42;;;-1.86;69.34
74722;BME280;63470;49.826;6.740;2023-12-04T02:50:04;100064.81;;;-1.89;69.37
74722;BME280;63470;49.826;6.740;2023-12-04T02:52:32;100062.34;;;-1.90;69.36
74722;BME280;63470;49.826;6.740;2023-12-04T02:55:00;100065.24;;;-1.93;69.35
74722;BME280;63470;49.826;6.740;2023-12-04T02:57:33;100057.92;;;-1.94;69.41
74722;BME280;63470;49.826;6.740;2023-12-04T03:00:10;100058.92;;;-1.94;69.39
74722;BME280;63470;49.826;6.740;2023-12-04T03:02:39;100057.28;;;-1.94;69.36
74722;BME280;63470;49.826;6.740;2023-12-04T03:05:13;100053.67;;;-1.94;69.32
74722;BME280;63470;49.826;6.740;2023-12-04T03:07:44;100056.34;;;-1.93;69.28
74722;BME280;63470;49.826;6.740;2023-12-04T03:10:11;100050.66;;;-1.94;69.36
74722;BME280;63470;49.826;6.740;2023-12-04T03:12:42;100055.68;;;-1.92;69.41
74722;BME280;63470;49.826;6.740;2023-12-04T03:15:06;100050.09;;;-1.89;69.43
74722;BME280;63470;49.826;6.740;2023-12-04T03:17:36;100051.39;;;-1.81;69.47
74722;BME280;63470;49.826;6.740;2023-12-04T03:20:10;100050.25;;;-1.74;69.43
74722;BME280;63470;49.826;6.740;2023-12-04T03:22:37;100042.38;;;-1.66;69.42
74722;BME280;63470;49.826;6.740;2023-12-04T03:25:08;100045.65;;;-1.57;69.39
74722;BME280;63470;49.826;6.740;2023-12-04T03:27:38;100043.13;;;-1.49;69.35
74722;BME280;63470;49.826;6.740;2023-12-04T03:30:09;100040.80;;;-1.41;69.27
74722;BME280;63470;49.826;6.740;2023-12-04T03:32:39;100036.52;;;-1.34;69.26
74722;BME280;63470;49.826;6.740;2023-12-04T03:35:14;100038.94;;;-1.28;69.20
74722;BME280;63470;49.826;6.740;2023-12-04T03:37:43;100036.38;;;-1.25;69.18
74722;BME280;63470;49.826;6.740;2023-12-04T03:40:25;100039.22;;;-1.21;69.15
74722;BME280;63470;49.826;6.740;2023-12-04T03:42:41;100037.95;;;-1.18;69.10
74722;BME280;63470;49.826;6.740;2023-12-04T03:45:12;100029.47;;;-1.15;69.05
74722;BME280;63470;49.826;6.740;2023-12-04T03:47:42;100027.36;;;-1.11;69.02
74722;BME280;63470;49.826;6.740;2023-12-04T03:50:13;100025.67;;;-1.08;69.02
74722;BME280;63470;49.826;6.740;2023-12-04T03:52:43;100021.44;;;-1.06;69.04
74722;BME280;63470;49.826;6.740;2023-12-04T03:55:14;100023.01;;;-1.02;69.01
74722;BME280;63470;49.826;6.740;2023-12-04T03:57:46;100021.58;;;-0.98;68.97
74722;BME280;63470;49.826;6.740;2023-12-04T04:00:20;100016.48;;;-0.95;68.98
74722;BME280;63470;49.826;6.740;2023-12-04T04:02:56;100012.91;;;-0.91;68.97
74722;BME280;63470;49.826;6.740;2023-12-04T04:05:21;100013.38;;;-0.89;68.98
74722;BME280;63470;49.826;6.740;2023-12-04T04:07:51;100009.70;;;-0.87;69.00
74722;BME280;63470;49.826;6.740;2023-12-04T04:10:22;100012.55;;;-0.87;69.03
74722;BME280;63470;49.826;6.740;2023-12-04T04:12:52;100005.30;;;-0.86;69.03
74722;BME280;63470;49.826;6.740;2023-12-04T04:15:29;100002.03;;;-0.84;69.04
74722;BME280;63470;49.826;6.740;2023-12-04T04:17:54;100001.97;;;-0.83;69.02
74722;BME280;63470;49.826;6.740;2023-12-04T04:20:18;100003.04;;;-0.82;68.98
74722;BME280;63470;49.826;6.740;2023-12-04T04:22:49;100001.09;;;-0.82;68.94
74722;BME280;63470;49.826;6.740;2023-12-04T04:25:25;99995.28;;;-0.82;68.98
74722;BME280;63470;49.826;6.740;2023-12-04T04:27:50;99994.71;;;-0.81;69.02
74722;BME280;63470;49.826;6.740;2023-12-04T04:30:22;99995.66;;;-0.80;69.00
74722;BME280;63470;49.826;6.740;2023-12-04T04:32:51;99989.25;;;-0.79;68.97
74722;BME280;63470;49.826;6.740;2023-12-04T04:35:21;99990.75;;;-0.78;68.99
74722;BME280;63470;49.826;6.740;2023-12-04T04:37:52;99990.94;;;-0.78;69.03
74722;BME280;63470;49.826;6.740;2023-12-04T04:40:27;99972.75;;;-0.76;69.04
74722;BME280;63470;49.826;6.740;2023-12-04T04:42:52;99969.11;;;-0.73;68.96
74722;BME280;63470;49.826;6.740;2023-12-04T04:45:23;99960.81;;;-0.67;68.86
74722;BME280;63470;49.826;6.740;2023-12-04T04:47:53;99947.30;;;-0.63;68.80
74722;BME280;63470;49.826;6.740;2023-12-04T04:50:24;99936.62;;;-0.60;68.78
74722;BME280;63470;49.826;6.740;2023-12-04T04:52:54;99929.62;;;-0.57;68.77
74722;BME280;63470;49.826;6.740;2023-12-04T04:55:25;99923.88;;;-0.54;68.80
74722;BME280;63470;49.826;6.740;2023-12-04T04:57:55;99924.31;;;-0.52;68.78
74722;BME280;63470;49.826;6.740;2023-12-04T05:00:25;99920.45;;;-0.51;68.82
74722;BME280;63470;49.826;6.740;2023-12-04T05:03:01;99906.52;;;-0.48;68.85
74722;BME280;63470;49.826;6.740;2023-12-04T05:05:31;99897.48;;;-0.46;68.85
74722;BME280;63470;49.826;6.740;2023-12-04T05:07:57;99895.11;;;-0.43;68.87
74722;BME280;63470;49.826;6.740;2023-12-04T05:10:27;99891.44;;;-0.40;68.89
74722;BME280;63470;49.826;6.740;2023-12-04T05:12:57;99886.30;;;-0.38;68.93
74722;BME280;63470;49.826;6.740;2023-12-04T05:15:28;99886.38;;;-0.35;68.97
74722;BME280;63470;49.826;6.740;2023-12-04T05:17:58;99881.25;;;-0.32;68.99
74722;BME280;63470;49.826;6.740;2023-12-04T05:20:29;99881.81;;;-0.29;69.01
74722;BME280;63470;49.826;6.740;2023-12-04T05:22:59;99880.83;;;-0.25;68.95
74722;BME280;63470;49.826;6.740;2023-12-04T05:25:30;99875.95;;;-0.22;68.97
74722;BME280;63470;49.826;6.740;2023-12-04T05:28:11;99878.69;;;-0.19;68.96
74722;BME280;63470;49.826;6.740;2023-12-04T05:30:36;99879.92;;;-0.16;68.95
74722;BME280;63470;49.826;6.740;2023-12-04T05:33:02;99867.48;;;-0.13;68.92
74722;BME280;63470;49.826;6.740;2023-12-04T05:35:35;99859.58;;;-0.11;68.92
74722;BME280;63470;49.826;6.740;2023-12-04T05:38:03;99854.38;;;-0.08;68.90
74722;BME280;63470;49.826;6.740;2023-12-04T05:40:33;99854.67;;;-0.05;68.95
74722;BME280;63470;49.826;6.740;2023-12-04T05:43:03;99850.30;;;-0.01;69.00
74722;BME280;63470;49.826;6.740;2023-12-04T05:45:34;99851.20;;;0.04;69.03
74722;BME280;63470;49.826;6.740;2023-12-04T05:48:05;99842.81;;;0.11;69.00
74722;BME280;63470;49.826;6.740;2023-12-04T05:50:40;99838.64;;;0.18;68.90
74722;BME280;63470;49.826;6.740;2023-12-04T05:53:06;99834.25;;;0.26;68.78
74722;BME280;63470;49.826;6.740;2023-12-04T05:55:36;99830.52;;;0.30;68.72
74722;BME280;63470;49.826;6.740;2023-12-04T05:58:06;99817.87;;;0.30;68.74
74722;BME280;63470;49.826;6.740;2023-12-04T06:00:37;99818.72;;;0.33;68.76
74722;BME280;63470;49.826;6.740;2023-12-04T06:03:07;99810.24;;;0.35;68.74
74722;BME280;63470;49.826;6.740;2023-12-04T06:05:38;99811.23;;;0.35;68.74
74722;BME280;63470;49.826;6.740;2023-12-04T06:08:08;99805.84;;;0.34;68.75
74722;BME280;63470;49.826;6.740;2023-12-04T06:10:45;99806.23;;;0.32;68.76
74722;BME280;63470;49.826;6.740;2023-12-04T06:13:14;99797.47;;;0.29;68.74
74722;BME280;63470;49.826;6.740;2023-12-04T06:15:44;99791.52;;;0.26;68.81
74722;BME280;63470;49.826;6.740;2023-12-04T06:18:16;99790.64;;;0.23;68.88
74722;BME280;63470;49.826;6.740;2023-12-04T06:20:45;99785.58;;;0.21;68.94
74722;BME280;63470;49.826;6.740;2023-12-04T06:23:11;99779.08;;;0.20;68.93
74722;BME280;63470;49.826;6.740;2023-12-04T06:25:43;99780.33;;;0.19;68.92
74722;BME280;63470;49.826;6.740;2023-12-04T06:28:13;99778.70;;;0.18;68.98
74722;BME280;63470;49.826;6.740;2023-12-04T06:30:43;99773.25;;;0.17;69.02
74722;BME280;63470;49.826;6.740;2023-12-04T06:33:16;99768.79;;;0.17;69.07
74722;BME280;63470;49.826;6.740;2023-12-04T06:35:44;99768.55;;;0.17;69.13
74722;BME280;63470;49.826;6.740;2023-12-04T06:38:15;99771.12;;;0.20;69.24
74722;BME280;63470;49.826;6.740;2023-12-04T06:40:58;99772.94;;;0.22;69.23
74722;BME280;63470;49.826;6.740;2023-12-04T06:43:25;99776.05;;;0.24;69.21
74722;BME280;63470;49.826;6.740;2023-12-04T06:45:52;99777.61;;;0.25;69.16
74722;BME280;63470;49.826;6.740;2023-12-04T06:48:16;99782.11;;;0.26;69.17
74722;BME280;63470;49.826;6.740;2023-12-04T06:50:47;99787.88;;;0.28;69.25
74722;BME280;63470;49.826;6.740;2023-12-04T06:53:17;99782.77;;;0.31;69.28
74722;BME280;63470;49.826;6.740;2023-12-04T06:55:48;99776.76;;;0.31;69.24
74722;BME280;63470;49.826;6.740;2023-12-04T06:58:19;99775.03;;;0.31;69.23
74722;BME280;63470;49.826;6.740;2023-12-04T07:00:49;99770.81;;;0.31;69.21
74722;BME280;63470;49.826;6.740;2023-12-04T07:03:20;99763.23;;;0.29;69.19
74722;BME280;63470;49.826;6.740;2023-12-04T07:05:55;99763.18;;;0.30;69.20
74722;BME280;63470;49.826;6.740;2023-12-04T07:08:21;99758.77;;;0.29;69.17
74722;BME280;63470;49.826;6.740;2023-12-04T07:10:51;99763.05;;;0.28;69.17
74722;BME280;63470;49.826;6.740;2023-12-04T07:13:22;99753.10;;;0.28;69.14
74722;BME280;63470;49.826;6.740;2023-12-04T07:15:52;99752.45;;;0.29;69.17
74722;BME280;63470;49.826;6.740;2023-12-04T07:18:23;99740.84;;;0.29;69.14
74722;BME280;63470;49.826;6.740;2023-12-04T07:20:53;99742.95;;;0.29;69.16
74722;BME280;63470;49.826;6.740;2023-12-04T07:23:24;99755.72;;;0.31;69.17
74722;BME280;63470;49.826;6.740;2023-12-04T07:25:54;99748.44;;;0.31;69.16
74722;BME280;63470;49.826;6.740;2023-12-04T07:28:32;99749.50;;;0.32;69.18
74722;BME280;63470;49.826;6.740;2023-12-04T07:30:55;99753.28;;;0.34;69.20
74722;BME280;63470;49.826;6.740;2023-12-04T07:33:27;99751.55;;;0.37;69.23
74722;BME280;63470;49.826;6.740;2023-12-04T07:35:57;99758.03;;;0.42;69.22
74722;BME280;63470;49.826;6.740;2023-12-04T07:38:28;99760.61;;;0.46;69.23
74722;BME280;63470;49.826;6.740;2023-12-04T07:40:57;99754.02;;;0.50;69.18
74722;BME280;63470;49.826;6.740;2023-12-04T07:43:28;99755.77;;;0.53;69.08
74722;BME280;63470;49.826;6.740;2023-12-04T07:45:58;99762.53;;;0.55;69.06
74722;BME280;63470;49.826;6.740;2023-12-04T07:48:35;99753.48;;;0.57;69.08
74722;BME280;63470;49.826;6.740;2023-12-04T07:51:16;99753.62;;;0.60;69.08
74722;BME280;63470;49.826;6.740;2023-12-04T07:53:43;99747.56;;;0.63;69.09
74722;BME280;63470;49.826;6.740;2023-12-04T07:56:03;99738.27;;;0.65;69.10
74722;BME280;63470;49.826;6.740;2023-12-04T07:58:31;99735.47;;;0.66;69.09
74722;BME280;63470;49.826;6.740;2023-12-04T08:01:02;99733.84;;;0.67;69.11
74722;BME280;63470;49.826;6.740;2023-12-04T08:03:32;99724.80;;;0.69;69.10
74722;BME280;63470;49.826;6.740;2023-12-04T08:06:04;99721.56;;;0.70;69.11
74722;BME280;63470;49.826;6.740;2023-12-04T08:08:33;99727.62;;;0.73;69.12
74722;BME280;63470;49.826;6.740;2023-12-04T08:11:09;99720.86;;;0.77;69.11
74722;BME280;63470;49.826;6.740;2023-12-04T08:13:33;99722.82;;;0.79;69.11
74722;BME280;63470;49.826;6.740;2023-12-04T08:16:05;99725.25;;;0.82;69.13
74722;BME280;63470;49.826;6.740;2023-12-04T08:18:34;99722.70;;;0.88;69.19
74722;BME280;63470;49.826;6.740;2023-12-04T08:21:05;99720.98;;;0.93;69.19
74722;BME280;63470;49.826;6.740;2023-12-04T08:23:36;99712.23;;;0.99;69.20
74722;BME280;63470;49.826;6.740;2023-12-04T08:26:07;99708.88;;;1.03;69.20
74722;BME280;63470;49.826;6.740;2023-12-04T08:28:42;99706.89;;;1.07;69.17
74722;BME280;63470;49.826;6.740;2023-12-04T08:31:19;99705.16;;;1.11;69.12
74722;BME280;63470;49.826;6.740;2023-12-04T08:33:44;99704.80;;;1.14;69.06
74722;BME280;63470;49.826;6.740;2023-12-04T08:36:13;99693.83;;;1.14;69.06
74722;BME280;63470;49.826;6.740;2023-12-04T08:38:47;99689.86;;;1.14;69.06
74722;BME280;63470;49.826;6.740;2023-12-04T08:41:14;99688.58;;;1.15;69.11
74722;BME280;63470;49.826;6.740;2023-12-04T08:43:40;99692.58;;;1.17;69.16
74722;BME280;63470;49.826;6.740;2023-12-04T08:46:13;99683.91;;;1.20;69.17
74722;BME280;63470;49.826;6.740;2023-12-04T08:48:41;99685.27;;;1.24;69.22
74722;BME280;63470;49.826;6.740;2023-12-04T08:51:18;99695.49;;;1.30;69.20
74722;BME280;63470;49.826;6.740;2023-12-04T08:53:43;99707.20;;;1.37;69.24
74722;BME280;63470;49.826;6.740;2023-12-04T08:56:13;99706.34;;;1.46;69.28
74722;BME280;63470;49.826;6.740;2023-12-04T08:58:44;99706.72;;;1.57;69.28
74722;BME280;63470;49.826;6.740;2023-12-04T09:01:14;99705.64;;;1.70;69.21
74722;BME280;63470;49.826;6.740;2023-12-04T09:03:48;99704.30;;;1.81;69.08
74722;BME280;63470;49.826;6.740;2023-12-04T09:06:18;99707.30;;;1.87;69.01
74722;BME280;63470;49.826;6.740;2023-12-04T09:08:48;99695.06;;;1.93;68.92
74722;BME280;63470;49.826;6.740;2023-12-04T09:11:22;99699.48;;;1.94;68.83
74722;BME280;63470;49.826;6.740;2023-12-04T09:13:49;99700.27;;;1.91;68.88
74722;BME280;63470;49.826;6.740;2023-12-04T09:16:23;99694.70;;;1.90;68.93
74722;BME280;63470;49.826;6.740;2023-12-04T09:18:54;99692.23;;;1.87;68.99
74722;BME280;63470;49.826;6.740;2023-12-04T09:21:29;99687.56;;;1.90;69.11
74722;BME280;63470;49.826;6.740;2023-12-04T09:23:50;99687.42;;;1.94;69.14
74722;BME280;63470;49.826;6.740;2023-12-04T09:26:21;99678.92;;;1.98;69.21
74722;BME280;63470;49.826;6.740;2023-12-04T09:28:51;99672.95;;;2.03;69.09
74722;BME280;63470;49.826;6.740;2023-12-04T09:31:22;99671.49;;;2.03;69.13
74722;BME280;63470;49.826;6.740;2023-12-04T09:33:52;99666.53;;;2.03;69.20
74722;BME280;63470;49.826;6.740;2023-12-04T09:36:23;99671.42;;;2.06;69.25
74722;BME280;63470;49.826;6.740;2023-12-04T09:38:53;99668.72;;;2.11;69.24
74722;BME280;63470;49.826;6.740;2023-12-04T09:41:29;99659.25;;;2.16;69.16
74722;BME280;63470;49.826;6.740;2023-12-04T09:44:02;99658.70;;;2.18;69.14
74722;BME280;63470;49.826;6.740;2023-12-04T09:46:29;99655.12;;;2.18;69.12
74722;BME280;63470;49.826;6.740;2023-12-04T09:49:00;99650.36;;;2.16;69.17
74722;BME280;63470;49.826;6.740;2023-12-04T09:51:31;99648.75;;;2.17;69.15
74722;BME280;63470;49.826;6.740;2023-12-04T09:54:02;99639.20;;;2.14;69.12
74722;BME280;63470;49.826;6.740;2023-12-04T09:56:27;99637.95;;;2.12;69.12
74722;BME280;63470;49.826;6.740;2023-12-04T09:58:58;99628.86;;;2.12;69.16
74722;BME280;63470;49.826;6.740;2023-12-04T10:01:29;99625.27;;;2.12;69.10
74722;BME280;63470;49.826;6.740;2023-12-04T10:04:00;99624.73;;;2.14;69.13
74722;BME280;63470;49.826;6.740;2023-12-04T10:06:31;99615.84;;;2.14;69.09
74722;BME280;63470;49.826;6.740;2023-12-04T10:08:59;99605.83;;;2.13;69.14
74722;BME280;63470;49.826;6.740;2023-12-04T10:11:39;99597.45;;;2.13;69.19
74722;BME280;63470;49.826;6.740;2023-12-04T10:14:18;99587.86;;;2.14;69.19
74722;BME280;63470;49.826;6.740;2023-12-04T10:16:34;99584.06;;;2.18;69.24
74722;BME280;63470;49.826;6.740;2023-12-04T10:19:14;99580.09;;;2.21;69.17
74722;BME280;63470;49.826;6.740;2023-12-04T10:21:32;99574.52;;;2.26;69.15
74722;BME280;63470;49.826;6.740;2023-12-04T10:24:02;99568.89;;;2.27;69.11
74722;BME280;63470;49.826;6.740;2023-12-04T10:26:32;99558.64;;;2.25;69.01
74722;BME280;63470;49.826;6.740;2023-12-04T10:29:04;99559.67;;;2.21;69.06
74722;BME280;63470;49.826;6.740;2023-12-04T10:31:35;99549.79;;;2.18;69.16
74722;BME280;63470;49.826;6.740;2023-12-04T10:34:09;99544.67;;;2.19;69.19
74722;BME280;63470;49.826;6.740;2023-12-04T10:36:35;99544.05;;;2.22;69.26
74722;BME280;63470;49.826;6.740;2023-12-04T10:39:07;99536.11;;;2.26;69.21
74722;BME280;63470;49.826;6.740;2023-12-04T10:41:34;99523.75;;;2.28;69.25
74722;BME280;63470;49.826;6.740;2023-12-04T10:44:05;99517.27;;;2.32;69.32
74722;BME280;63470;49.826;6.740;2023-12-04T10:46:36;99516.28;;;2.35;69.13
74722;BME280;63470;49.826;6.740;2023-12-04T10:49:09;99508.15;;;2.34;69.12
74722;BME280;63470;49.826;6.740;2023-12-04T10:51:37;99503.64;;;2.31;69.14
74722;BME280;63470;49.826;6.740;2023-12-04T10:54:11;99499.89;;;2.29;69.15
74722;BME280;63470;49.826;6.740;2023-12-04T10:57:28;99491.25;;;2.27;69.26
74722;BME280;63470;49.826;6.740;2023-12-04T10:59:32;99483.05;;;2.29;69.33
74722;BME280;63470;49.826;6.740;2023-12-04T11:01:41;99483.55;;;2.33;69.27
74722;BME280;63470;49.826;6.740;2023-12-04T11:04:15;99480.39;;;2.33;69.27
74722;BME280;63470;49.826;6.740;2023-12-04T11:06:39;99474.36;;;2.35;69.27
74722;BME280;63470;49.826;6.740;2023-12-04T11:09:09;99472.68;;;2.36;69.30
74722;BME280;63470;49.826;6.740;2023-12-04T11:11:43;99459.09;;;2.39;69.37
74722;BME280;63470;49.826;6.740;2023-12-04T11:14:14;99453.98;;;2.44;69.30
74722;BME280;63470;49.826;6.740;2023-12-04T11:16:46;99445.77;;;2.46;69.25
74722;BME280;63470;49.826;6.740;2023-12-04T11:21:46;99436.47;;;2.43;69.29
74722;BME280;63470;49.826;6.740;2023-12-04T11:24:20;99437.28;;;2.42;69.33
74722;BME280;63470;49.826;6.740;2023-12-04T11:26:58;99431.42;;;2.45;69.36
74722;BME280;63470;49.826;6.740;2023-12-04T11:29:21;99426.55;;;2.47;69.22
74722;BME280;63470;49.826;6.740;2023-12-04T11:31:45;99421.52;;;2.48;69.27
74722;BME280;63470;49.826;6.740;2023-12-04T11:34:18;99408.73;;;2.50;69.21
74722;BME280;63470;49.826;6.740;2023-12-04T11:36:57;99410.37;;;2.52;69.19
74722;BME280;63470;49.826;6.740;2023-12-04T11:42:06;99391.66;;;2.58;69.13
74722;BME280;63470;49.826;6.740;2023-12-04T11:44:16;99387.17;;;2.60;69.08
74722;BME280;63470;49.826;6.740;2023-12-04T11:47:04;99379.59;;;2.57;69.13
74722;BME280;63470;49.826;6.740;2023-12-04T11:52:57;99378.55;;;2.54;69.25
74722;BME280;63470;49.826;6.740;2023-12-04T11:55:13;99378.38;;;2.55;69.34
74722;BME280;63470;49.826;6.740;2023-12-04T11:59:20;99366.91;;;2.62;69.36
74722;BME280;63470;49.826;6.740;2023-12-04T12:01:50;99365.20;;;2.67;69.40
74722;BME280;63470;49.826;6.740;2023-12-04T12:04:20;99359.84;;;2.74;69.29
74722;BME280;63470;49.826;6.740;2023-12-04T12:06:52;99348.05;;;2.75;69.14
74722;BME280;63470;49.826;6.740;2023-12-04T12:09:22;99349.49;;;2.73;69.12
74722;BME280;63470;49.826;6.740;2023-12-04T12:11:53;99335.80;;;2.71;69.13
74722;BME280;63470;49.826;6.740;2023-12-04T12:14:22;99338.25;;;2.69;69.17
74722;BME280;63470;49.826;6.740;2023-12-04T12:16:54;99335.80;;;2.71;69.18
74722;BME280;63470;49.826;6.740;2023-12-04T12:19:23;99337.53;;;2.74;69.24
74722;BME280;63470;49.826;6.740;2023-12-04T12:21:54;99341.42;;;2.77;69.26
74722;BME280;63470;49.826;6.740;2023-12-04T12:24:24;99330.35;;;2.81;69.29
74722;BME280;63470;49.826;6.740;2023-12-04T12:26:56;99324.73;;;2.85;69.22
74722;BME280;63470;49.826;6.740;2023-12-04T12:29:27;99321.50;;;2.88;69.26
74722;BME280;63470;49.826;6.740;2023-12-04T12:32:06;99309.50;;;2.95;69.29
74722;BME280;63470;49.826;6.740;2023-12-04T12:34:53;99307.39;;;3.02;69.28
74722;BME280;63470;49.826;6.740;2023-12-04T12:37:19;99300.11;;;3.11;69.24
74722;BME280;63470;49.826;6.740;2023-12-04T12:39:42;99290.91;;;3.20;69.20
74722;BME280;63470;49.826;6.740;2023-12-04T12:45:14;99281.20;;;3.31;69.11
74722;BME280;63470;49.826;6.740;2023-12-04T12:47:02;99279.14;;;3.32;69.19
74722;BME280;63470;49.826;6.740;2023-12-04T12:49:29;99276.94;;;3.37;69.21
74722;BME280;63470;49.826;6.740;2023-12-04T12:52:00;99267.88;;;3.40;69.16
74722;BME280;63470;49.826;6.740;2023-12-04T12:54:36;99263.23;;;3.41;69.17
74722;BME280;63470;49.826;6.740;2023-12-04T12:57:06;99255.40;;;3.43;69.24
74722;BME280;63470;49.826;6.740;2023-12-04T13:00:16;99252.75;;;3.48;69.21
74722;BME280;63470;49.826;6.740;2023-12-04T13:02:08;99242.48;;;3.48;69.06
74722;BME280;63470;49.826;6.740;2023-12-04T13:04:46;99236.22;;;3.47;69.10
74722;BME280;63470;49.826;6.740;2023-12-04T13:07:50;99228.44;;;3.50;69.10
74722;BME280;63470;49.826;6.740;2023-12-04T13:14:50;99219.11;;;3.63;69.17
74722;BME280;63470;49.826;6.740;2023-12-04T13:17:07;99210.60;;;3.64;69.11
74722;BME280;63470;49.826;6.740;2023-12-04T13:19:38;99208.09;;;3.63;69.09
74722;BME280;63470;49.826;6.740;2023-12-04T13:22:08;99205.26;;;3.59;69.05
74722;BME280;63470;49.826;6.740;2023-12-04T13:24:39;99204.54;;;3.55;69.08
74722;BME280;63470;49.826;6.740;2023-12-04T13:27:10;99195.20;;;3.49;69.04
74722;BME280;63470;49.826;6.740;2023-12-04T13:29:40;99194.72;;;3.42;69.08
74722;BME280;63470;49.826;6.740;2023-12-04T13:32:11;99192.55;;;3.37;69.19
74722;BME280;63470;49.826;6.740;2023-12-04T13:34:46;99182.52;;;3.34;69.28
74722;BME280;63470;49.826;6.740;2023-12-04T13:40:20;99185.04;;;3.38;69.24